createdAt,value
2022-09-24T00:01:17.630Z,7.10
2022-09-24T00:03:53.207Z,6.97
2022-09-24T00:06:26.927Z,6.60
2022-09-24T00:08:57.971Z,6.88
2022-09-24T00:11:28.806Z,6.72
2022-09-24T00:13:58.757Z,6.78
2022-09-24T00:16:30.635Z,6.55
2022-09-24T00:19:02.730Z,6.80
2022-09-24T00:21:34.469Z,5.47
2022-09-24T00:24:05.514Z,6.85
2022-09-24T00:26:50.659Z,6.28
2022-09-24T00:29:20.962Z,5.57
2022-09-24T00:31:50.227Z,5.75
2022-09-24T00:34:20.884Z,6.70
2022-09-24T00:36:49.048Z,6.55
2022-09-24T00:39:17.775Z,6.30
2022-09-24T00:41:47.314Z,7.07
2022-09-24T00:44:53.787Z,6.97
2022-09-24T00:47:30.653Z,5.68
2022-09-24T00:50:08.554Z,6.00
2022-09-24T00:52:41.937Z,6.15
2022-09-24T00:55:10.939Z,6.00
2022-09-24T00:57:41.027Z,5.68
2022-09-24T01:00:10.428Z,5.63
2022-09-24T01:02:43.396Z,5.80
2022-09-24T01:05:14.913Z,5.25
2022-09-24T01:07:43.071Z,6.10
2022-09-24T01:10:15.191Z,5.93
2022-09-24T01:12:50.627Z,6.80
2022-09-24T01:15:26.447Z,5.45
2022-09-24T01:18:02.314Z,5.63
2022-09-24T01:20:55.585Z,6.95
2022-09-24T01:23:52.948Z,6.60
2022-09-24T01:26:41.194Z,6.70
2022-09-24T01:29:42.057Z,6.75
2022-09-24T01:32:20.380Z,6.47
2022-09-24T01:34:53.537Z,6.53
2022-09-24T01:37:26.736Z,5.80
2022-09-24T01:39:58.016Z,6.32
2022-09-24T01:42:30.640Z,6.38
2022-09-24T01:45:02.442Z,7.13
2022-09-24T01:47:35.008Z,6.45
2022-09-24T01:50:06.000Z,6.88
2022-09-24T01:52:41.621Z,6.10
2022-09-24T01:55:14.282Z,6.90
2022-09-24T01:57:48.337Z,5.43
2022-09-24T02:00:20.320Z,7.18
2022-09-24T02:02:56.111Z,7.35
2022-09-24T02:05:43.022Z,7.45
2022-09-24T02:08:17.729Z,7.15
2022-09-24T02:10:52.239Z,7.22
2022-09-24T02:13:25.034Z,8.27
2022-09-24T02:16:00.707Z,7.43
2022-09-24T02:18:34.963Z,7.00
2022-09-24T02:23:37.706Z,7.40
2022-09-24T02:26:06.811Z,7.10
2022-09-24T02:28:36.742Z,8.13
2022-09-24T02:31:09.346Z,8.48
2022-09-24T02:34:00.964Z,7.97
2022-09-24T02:36:29.783Z,8.13
2022-09-24T02:38:57.893Z,7.97
2022-09-24T02:41:27.098Z,7.75
2022-09-24T02:43:54.978Z,7.47
2022-09-24T02:46:24.567Z,7.88
2022-09-24T02:48:52.692Z,24.65
2022-09-24T02:51:21.711Z,14.32
2022-09-24T02:53:49.719Z,10.60
2022-09-24T02:56:17.751Z,10.38
2022-09-24T02:58:46.046Z,9.00
2022-09-24T03:01:14.699Z,8.70
2022-09-24T03:03:44.451Z,9.98
2022-09-24T03:06:14.067Z,9.13
2022-09-24T03:08:42.378Z,9.43
2022-09-24T03:11:15.094Z,10.13
2022-09-24T03:13:46.456Z,9.95
2022-09-24T03:16:14.611Z,10.07
2022-09-24T03:18:45.039Z,11.30
2022-09-24T03:21:14.579Z,10.15
2022-09-24T03:23:42.537Z,8.55
2022-09-24T03:26:12.916Z,8.95
2022-09-24T03:28:41.263Z,9.27
2022-09-24T03:31:08.916Z,9.45
2022-09-24T03:33:39.616Z,10.05
2022-09-24T03:36:12.227Z,9.95
2022-09-24T03:38:42.231Z,9.03
2022-09-24T03:41:11.839Z,9.38
2022-09-24T03:43:40.244Z,8.23
2022-09-24T03:46:09.361Z,8.02
2022-09-24T03:48:39.145Z,8.05
2022-09-24T03:51:12.353Z,8.15
2022-09-24T03:53:40.860Z,8.82
2022-09-24T03:56:11.889Z,8.93
2022-09-24T03:58:40.489Z,9.27
2022-09-24T04:01:09.962Z,8.80
2022-09-24T04:03:38.376Z,8.95
2022-09-24T04:06:08.993Z,9.23
2022-09-24T04:08:39.747Z,9.40
2022-09-24T04:11:08.976Z,9.30
2022-09-24T04:13:37.342Z,9.60
2022-09-24T04:16:05.767Z,9.88
2022-09-24T04:18:38.938Z,8.82
2022-09-24T04:23:37.661Z,9.27
2022-09-24T04:26:05.388Z,8.77
2022-09-24T04:28:33.766Z,8.55
2022-09-24T04:31:04.696Z,8.63
2022-09-24T04:33:32.869Z,8.80
2022-09-24T04:36:02.317Z,9.40
2022-09-24T04:38:31.697Z,8.45
2022-09-24T04:41:06.273Z,9.32
2022-09-24T04:43:34.560Z,8.38
2022-09-24T04:46:03.893Z,8.55
2022-09-24T04:48:32.682Z,7.80
2022-09-24T04:51:02.462Z,7.60
2022-09-24T04:53:33.501Z,8.02
2022-09-24T04:56:03.244Z,7.93
2022-09-24T04:58:31.858Z,8.80
2022-09-24T05:01:04.920Z,8.50
2022-09-24T05:03:33.323Z,9.00
2022-09-24T05:06:02.041Z,8.93
2022-09-24T05:08:29.947Z,9.38
2022-09-24T05:10:59.206Z,9.88
2022-09-24T05:13:27.953Z,8.75
2022-09-24T05:15:55.928Z,9.43
2022-09-24T05:18:24.450Z,9.43
2022-09-24T05:20:53.038Z,9.00
2022-09-24T05:23:21.589Z,8.55
2022-09-24T05:26:07.813Z,8.13
2022-09-24T05:28:37.752Z,8.05
2022-09-24T05:31:06.810Z,8.90
2022-09-24T05:33:35.075Z,9.30
2022-09-24T05:36:03.666Z,8.95
2022-09-24T05:38:33.080Z,9.85
2022-09-24T05:41:01.230Z,9.73
2022-09-24T05:43:29.465Z,9.25
2022-09-24T05:45:59.293Z,8.75
2022-09-24T05:48:27.163Z,10.55
2022-09-24T05:50:57.297Z,9.13
2022-09-24T05:53:25.790Z,8.68
2022-09-24T05:55:54.412Z,7.80
2022-09-24T05:58:22.357Z,8.55
2022-09-24T06:00:51.115Z,7.35
2022-09-24T06:03:21.014Z,6.38
2022-09-24T06:05:51.840Z,5.85
2022-09-24T06:08:21.494Z,6.63
2022-09-24T06:10:49.789Z,5.88
2022-09-24T06:13:21.958Z,5.22
2022-09-24T06:15:50.486Z,6.25
2022-09-24T06:18:20.869Z,7.28
2022-09-24T06:20:48.695Z,8.65
2022-09-24T06:23:16.457Z,6.93
2022-09-24T06:25:44.335Z,7.38
2022-09-24T06:28:12.161Z,6.65
2022-09-24T06:30:41.179Z,6.60
2022-09-24T06:35:45.289Z,6.22
2022-09-24T06:38:14.800Z,7.22
2022-09-24T06:40:43.855Z,7.60
2022-09-24T06:43:13.814Z,6.97
2022-09-24T06:45:43.879Z,6.13
2022-09-24T06:48:14.462Z,8.13
2022-09-24T06:50:45.589Z,6.95
2022-09-24T06:53:14.436Z,6.13
2022-09-24T06:55:42.924Z,7.18
2022-09-24T06:58:12.814Z,7.75
2022-09-24T07:00:43.108Z,8.32
2022-09-24T07:03:17.919Z,5.75
2022-09-24T07:05:47.613Z,5.82
2022-09-24T07:08:15.736Z,5.55
2022-09-24T07:10:45.488Z,6.38
2022-09-24T07:13:20.462Z,5.88
2022-09-24T07:15:50.259Z,5.47
2022-09-24T07:18:18.684Z,6.20
2022-09-24T07:20:52.675Z,5.38
2022-09-24T07:23:21.555Z,5.80
2022-09-24T07:25:50.440Z,5.57
2022-09-24T07:28:20.878Z,5.70
2022-09-24T07:30:57.106Z,7.72
2022-09-24T07:33:25.634Z,5.97
2022-09-24T07:35:54.871Z,9.57
2022-09-24T07:38:23.517Z,9.35
2022-09-24T07:40:51.899Z,8.82
2022-09-24T07:43:21.802Z,9.18
2022-09-24T07:45:49.725Z,7.60
2022-09-24T07:48:17.556Z,6.82
2022-09-24T07:50:45.698Z,7.43
2022-09-24T07:53:16.922Z,7.25
2022-09-24T07:55:45.518Z,6.90
2022-09-24T07:58:15.813Z,7.47
2022-09-24T08:00:44.370Z,7.18
2022-09-24T08:03:12.255Z,7.32
2022-09-24T08:05:45.445Z,7.78
2022-09-24T08:08:15.305Z,7.22
2022-09-24T08:10:43.733Z,7.30
2022-09-24T08:13:12.246Z,7.90
2022-09-24T08:15:40.298Z,7.18
2022-09-24T08:18:10.714Z,8.07
2022-09-24T08:20:39.632Z,7.43
2022-09-24T08:23:10.044Z,8.20
2022-09-24T08:25:40.025Z,7.88
2022-09-24T08:28:10.754Z,8.10
2022-09-24T08:30:40.957Z,8.68
2022-09-24T08:33:09.221Z,8.60
2022-09-24T08:35:40.309Z,7.70
2022-09-24T08:38:08.910Z,8.25
2022-09-24T08:40:44.076Z,7.57
2022-09-24T08:43:24.237Z,8.35
2022-09-24T08:46:16.182Z,8.07
2022-09-24T08:48:51.749Z,8.00
2022-09-24T08:51:24.457Z,7.97
2022-09-24T08:53:58.610Z,8.60
2022-09-24T08:56:35.088Z,8.45
2022-09-24T08:59:12.411Z,8.70
2022-09-24T09:01:48.066Z,9.00
2022-09-24T09:04:29.777Z,8.55
2022-09-24T09:07:09.322Z,8.43
2022-09-24T09:09:46.289Z,9.18
2022-09-24T09:12:23.890Z,8.88
2022-09-24T09:14:57.147Z,10.10
2022-09-24T09:17:39.031Z,9.13
2022-09-24T09:20:18.738Z,9.75
2022-09-24T09:22:49.864Z,9.35
2022-09-24T09:25:24.844Z,9.77
2022-09-24T09:28:00.855Z,8.93
2022-09-24T09:30:34.361Z,10.20
2022-09-24T09:35:47.182Z,11.10
2022-09-24T09:38:23.648Z,10.02
2022-09-24T09:41:00.210Z,10.63
2022-09-24T09:43:30.464Z,10.73
2022-09-24T09:46:11.503Z,10.70
2022-09-24T09:48:45.820Z,11.25
2022-09-24T09:51:27.217Z,10.38
2022-09-24T09:53:57.111Z,9.88
2022-09-24T09:56:27.774Z,9.68
2022-09-24T09:59:08.304Z,9.25
2022-09-24T10:01:40.587Z,8.82
2022-09-24T10:04:29.543Z,7.83
2022-09-24T10:07:07.738Z,9.98
2022-09-24T10:09:36.272Z,9.13
2022-09-24T10:12:22.130Z,9.25
2022-09-24T10:15:01.359Z,8.57
2022-09-24T10:17:32.833Z,9.45
2022-09-24T10:20:02.607Z,9.30
2022-09-24T10:22:32.135Z,9.48
2022-09-24T10:25:02.090Z,9.85
2022-09-24T10:27:35.811Z,10.90
2022-09-24T10:30:32.561Z,9.50
2022-09-24T10:33:02.888Z,10.00
2022-09-24T10:35:34.961Z,9.43
2022-09-24T10:38:05.718Z,9.98
2022-09-24T10:40:42.701Z,10.48
2022-09-24T10:43:19.477Z,9.43
2022-09-24T10:46:13.708Z,9.93
2022-09-24T10:48:46.914Z,7.72
2022-09-24T10:54:34.896Z,9.27
2022-09-24T10:57:14.678Z,8.95
2022-09-24T10:59:55.118Z,6.97
2022-09-24T11:02:59.910Z,7.15
2022-09-24T11:05:32.984Z,7.38
2022-09-24T11:08:16.958Z,6.95
2022-09-24T11:11:02.885Z,6.65
2022-09-24T11:13:40.529Z,6.10
2022-09-24T11:16:26.543Z,5.47
2022-09-24T11:19:01.514Z,5.85
2022-09-24T11:21:59.886Z,5.07
2022-09-24T11:24:48.795Z,4.00
2022-09-24T11:27:43.745Z,4.70
2022-09-24T11:30:14.931Z,3.60
2022-09-24T11:33:01.247Z,4.40
2022-09-24T11:35:48.419Z,3.88
2022-09-24T11:38:19.883Z,4.80
2022-09-24T11:41:10.333Z,4.28
2022-09-24T11:43:54.955Z,4.22
2022-09-24T11:46:39.260Z,4.60
2022-09-24T11:49:32.628Z,4.50
2022-09-24T11:52:07.421Z,4.30
2022-09-24T11:54:41.346Z,4.00
2022-09-24T11:57:16.144Z,4.63
2022-09-24T11:59:50.225Z,4.50
2022-09-24T12:02:24.987Z,4.20
2022-09-24T12:04:59.606Z,3.75
2022-09-24T12:07:35.432Z,4.13
2022-09-24T12:10:08.467Z,3.90
2022-09-24T12:12:42.081Z,3.40
2022-09-24T12:15:18.431Z,3.35
2022-09-24T12:17:52.332Z,4.03
2022-09-24T12:20:24.654Z,4.38
2022-09-24T12:22:59.942Z,4.47
2022-09-24T12:25:30.794Z,4.60
2022-09-24T12:28:00.557Z,5.00
2022-09-24T12:30:57.748Z,4.13
2022-09-24T12:33:30.466Z,4.20
2022-09-24T12:36:07.192Z,3.95
2022-09-24T12:38:40.721Z,4.10
2022-09-24T12:41:33.497Z,4.10
2022-09-24T12:44:08.141Z,4.50
2022-09-24T12:46:42.799Z,4.15
2022-09-24T12:49:25.515Z,4.28
2022-09-24T12:51:55.699Z,4.80
2022-09-24T12:54:30.283Z,3.88
2022-09-24T12:57:10.333Z,4.35
2022-09-24T12:59:49.119Z,5.07
2022-09-24T13:02:21.197Z,4.78
2022-09-24T13:05:04.594Z,4.32
2022-09-24T13:07:35.751Z,4.93
2022-09-24T13:10:24.654Z,4.30
2022-09-24T13:12:54.359Z,5.13
2022-09-24T13:15:31.904Z,5.28
2022-09-24T13:18:07.093Z,5.28
2022-09-24T13:20:39.998Z,4.32
2022-09-24T13:23:32.055Z,4.80
2022-09-24T13:26:04.949Z,4.95
2022-09-24T13:28:38.648Z,4.65
2022-09-24T13:31:15.956Z,4.70
2022-09-24T13:33:47.535Z,5.07
2022-09-24T13:36:19.362Z,5.18
2022-09-24T13:38:57.485Z,4.53
2022-09-24T13:41:43.756Z,4.80
2022-09-24T13:44:19.175Z,5.78
2022-09-24T13:46:48.696Z,5.43
2022-09-24T13:49:19.961Z,5.68
2022-09-24T13:52:07.805Z,4.95
2022-09-24T13:54:46.777Z,5.00
2022-09-24T13:57:23.506Z,3.88
2022-09-24T13:59:51.669Z,3.75
2022-09-24T14:02:28.114Z,3.97
2022-09-24T14:04:58.657Z,4.30
2022-09-24T14:07:28.829Z,4.70
2022-09-24T14:10:08.621Z,4.30
2022-09-24T14:12:38.343Z,4.50
2022-09-24T14:15:15.794Z,4.47
2022-09-24T14:17:44.602Z,4.75
2022-09-24T14:20:15.813Z,4.43
2022-09-24T14:22:47.024Z,4.18
2022-09-24T14:25:18.640Z,3.97
2022-09-24T14:27:52.016Z,4.30
2022-09-24T14:30:22.864Z,5.20
2022-09-24T14:32:54.486Z,4.70
2022-09-24T14:35:30.173Z,5.30
2022-09-24T14:38:06.451Z,5.00
2022-09-24T14:40:43.406Z,5.57
2022-09-24T14:43:22.110Z,5.72
2022-09-24T14:45:52.369Z,5.88
2022-09-24T14:48:29.703Z,6.00
2022-09-24T14:50:58.007Z,5.15
2022-09-24T14:53:29.713Z,5.70
2022-09-24T14:55:58.301Z,5.50
2022-09-24T14:58:36.401Z,5.78
2022-09-24T15:01:08.356Z,5.55
2022-09-24T15:03:41.940Z,5.50
2022-09-24T15:06:20.697Z,5.57
2022-09-24T15:08:59.356Z,5.18
2022-09-24T15:11:30.013Z,5.93
2022-09-24T15:14:12.822Z,5.28
2022-09-24T15:16:41.703Z,4.70
2022-09-24T15:19:19.455Z,4.95
2022-09-24T15:21:49.217Z,5.35
2022-09-24T15:24:17.646Z,5.32
2022-09-24T15:26:47.998Z,4.60
2022-09-24T15:29:24.657Z,4.53
2022-09-24T15:31:53.135Z,5.18
2022-09-24T15:34:21.306Z,4.70
2022-09-24T15:36:49.986Z,4.50
2022-09-24T15:39:19.991Z,4.63
2022-09-24T15:41:47.963Z,4.75
2022-09-24T15:44:23.119Z,5.00
2022-09-24T15:46:52.408Z,4.88
2022-09-24T15:49:22.330Z,5.03
2022-09-24T15:51:53.265Z,5.13
2022-09-24T15:54:21.818Z,5.10
2022-09-24T15:56:52.471Z,5.00
2022-09-24T15:59:23.637Z,4.40
2022-09-24T16:01:55.598Z,5.03
2022-09-24T16:04:24.024Z,4.60
2022-09-24T16:06:53.347Z,4.90
2022-09-24T16:09:21.891Z,5.40
2022-09-24T16:11:50.917Z,4.80
2022-09-24T16:14:19.468Z,5.55
2022-09-24T16:16:48.874Z,5.70
2022-09-24T16:19:16.908Z,5.07
2022-09-24T16:21:45.052Z,6.00
2022-09-24T16:24:13.480Z,5.32
2022-09-24T16:26:41.896Z,5.38
2022-09-24T16:29:12.262Z,5.50
2022-09-24T16:31:41.427Z,6.80
2022-09-24T16:34:12.229Z,7.32
2022-09-24T16:36:40.439Z,6.93
2022-09-24T16:39:08.617Z,6.00
2022-09-24T16:41:38.093Z,6.57
2022-09-24T16:44:06.985Z,6.75
2022-09-24T16:46:35.253Z,6.13
2022-09-24T16:49:03.850Z,6.18
2022-09-24T16:51:33.954Z,6.22
2022-09-24T16:54:02.512Z,6.78
2022-09-24T16:56:30.855Z,5.90
2022-09-24T16:58:59.663Z,6.20
2022-09-24T17:01:28.417Z,6.63
2022-09-24T17:03:59.673Z,6.25
2022-09-24T17:06:30.410Z,6.00
2022-09-24T17:09:18.025Z,6.05
2022-09-24T17:11:48.557Z,5.65
2022-09-24T17:14:19.139Z,6.70
2022-09-24T17:16:47.586Z,5.90
2022-09-24T17:19:16.940Z,6.30
2022-09-24T17:21:47.013Z,6.03
2022-09-24T17:24:21.572Z,6.93
2022-09-24T17:26:51.112Z,6.55
2022-09-24T17:29:22.508Z,6.10
2022-09-24T17:31:51.171Z,6.63
2022-09-24T17:34:19.898Z,6.10
2022-09-24T17:36:48.785Z,6.07
2022-09-24T17:39:19.507Z,6.45
2022-09-24T17:41:47.742Z,6.53
2022-09-24T17:44:18.263Z,7.35
2022-09-24T17:46:46.702Z,10.95
2022-09-24T17:49:15.866Z,14.63
2022-09-24T17:51:44.395Z,11.52
2022-09-24T17:54:14.949Z,12.68
2022-09-24T17:56:45.294Z,13.57
2022-09-24T17:59:15.463Z,10.50
2022-09-24T18:01:45.814Z,12.40
2022-09-24T18:04:16.664Z,21.10
2022-09-24T18:06:47.242Z,17.15
2022-09-24T18:09:17.455Z,11.82
2022-09-24T18:11:49.873Z,10.40
2022-09-24T18:14:20.331Z,9.93
2022-09-24T18:16:49.477Z,21.85
2022-09-24T18:19:18.685Z,9.55
2022-09-24T18:21:48.648Z,6.05
2022-09-24T18:24:18.277Z,4.55
2022-09-24T18:26:51.573Z,2.42
2022-09-24T18:29:21.564Z,2.13
2022-09-24T18:31:51.809Z,2.03
2022-09-24T18:34:20.394Z,4.75
2022-09-24T18:36:48.831Z,2.92
2022-09-24T18:39:23.902Z,2.45
2022-09-24T18:41:55.008Z,2.78
2022-09-24T18:44:23.360Z,2.90
2022-09-24T18:46:51.703Z,3.33
2022-09-24T18:49:20.651Z,3.42
2022-09-24T18:51:49.243Z,3.70
2022-09-24T18:54:18.490Z,3.30
2022-09-24T18:56:46.750Z,3.40
2022-09-24T18:59:18.700Z,3.90
2022-09-24T19:01:49.081Z,12.25
2022-09-24T19:04:18.098Z,4.00
2022-09-24T19:06:48.191Z,6.65
2022-09-24T19:09:17.955Z,4.50
2022-09-24T19:11:46.606Z,3.90
2022-09-24T19:14:18.375Z,7.00
2022-09-24T19:16:47.521Z,3.90
2022-09-24T19:19:16.712Z,3.35
2022-09-24T19:21:44.579Z,3.95
2022-09-24T19:24:12.897Z,3.85
2022-09-24T19:26:41.212Z,6.35
2022-09-24T19:29:09.789Z,4.05
2022-09-24T19:31:41.417Z,3.35
2022-09-24T19:34:12.675Z,3.90
2022-09-24T19:36:43.893Z,4.10
2022-09-24T19:39:13.020Z,3.70
2022-09-24T19:41:41.224Z,2.97
2022-09-24T19:44:09.675Z,2.60
2022-09-24T19:46:39.849Z,3.20
2022-09-24T19:49:10.193Z,2.97
2022-09-24T19:51:38.765Z,3.33
2022-09-24T19:54:08.385Z,3.25
2022-09-24T19:56:36.941Z,3.38
2022-09-24T19:59:07.755Z,3.65
2022-09-24T20:01:35.901Z,3.80
2022-09-24T20:04:08.162Z,3.85
2022-09-24T20:06:38.667Z,3.88
2022-09-24T20:09:07.248Z,4.20
2022-09-24T20:11:35.236Z,4.95
2022-09-24T20:14:03.229Z,5.03
2022-09-24T20:16:32.586Z,4.90
2022-09-24T20:19:02.291Z,5.97
2022-09-24T20:21:35.387Z,5.82
2022-09-24T20:24:04.822Z,6.40
2022-09-24T20:26:51.091Z,4.78
2022-09-24T20:29:21.599Z,5.57
2022-09-24T20:31:52.467Z,5.25
2022-09-24T20:34:21.938Z,5.13
2022-09-24T20:36:51.618Z,5.35
2022-09-24T20:39:20.005Z,6.45
2022-09-24T20:41:49.429Z,7.72
2022-09-24T20:44:17.435Z,7.57
2022-09-24T20:46:45.137Z,6.20
2022-09-24T20:49:22.971Z,5.68
2022-09-24T20:51:56.945Z,6.20
2022-09-24T20:54:27.257Z,6.28
2022-09-24T20:56:56.237Z,5.85
2022-09-24T20:59:25.942Z,10.98
2022-09-24T21:01:54.301Z,8.00
2022-09-24T21:04:22.607Z,7.40
2022-09-24T21:06:52.705Z,6.03
2022-09-24T21:09:20.801Z,6.35
2022-09-24T21:11:50.083Z,6.85
2022-09-24T21:14:18.819Z,6.50
2022-09-24T21:16:47.314Z,5.97
2022-09-24T21:19:16.245Z,6.28
2022-09-24T21:21:43.981Z,6.35
2022-09-24T21:24:16.023Z,6.88
2022-09-24T21:26:45.059Z,7.60
2022-09-24T21:29:16.618Z,8.07
2022-09-24T21:31:46.492Z,8.32
2022-09-24T21:34:17.060Z,7.55
2022-09-24T21:36:46.746Z,7.72
2022-09-24T21:39:18.750Z,7.78
2022-09-24T21:41:50.372Z,8.07
2022-09-24T21:44:19.479Z,8.38
2022-09-24T21:46:47.727Z,7.60
2022-09-24T21:49:17.170Z,7.45
2022-09-24T21:51:46.134Z,7.30
2022-09-24T21:54:17.460Z,6.25
2022-09-24T21:56:46.637Z,6.95
2022-09-24T21:59:32.607Z,7.50
2022-09-24T22:02:00.650Z,6.65
2022-09-24T22:04:29.619Z,7.30
2022-09-24T22:06:57.571Z,6.13
2022-09-24T22:09:27.383Z,6.93
2022-09-24T22:11:55.741Z,7.20
2022-09-24T22:14:23.678Z,7.47
2022-09-24T22:16:51.511Z,7.10
2022-09-24T22:19:19.506Z,7.20
2022-09-24T22:21:47.223Z,6.75
2022-09-24T22:24:16.207Z,7.20
2022-09-24T22:26:46.089Z,6.45
2022-09-24T22:29:13.948Z,7.30
2022-09-24T22:31:41.720Z,7.30
2022-09-24T22:34:28.078Z,7.50
2022-09-24T22:36:55.703Z,7.53
2022-09-24T22:39:23.560Z,6.60
2022-09-24T22:41:52.642Z,8.02
2022-09-24T22:44:20.492Z,6.95
2022-09-24T22:46:48.196Z,6.35
2022-09-24T22:49:16.081Z,7.78
2022-09-24T22:51:44.514Z,8.05
2022-09-24T22:54:13.983Z,7.60
2022-09-24T22:56:41.802Z,7.35
2022-09-24T22:59:10.929Z,7.95
2022-09-24T23:01:42.612Z,8.00
2022-09-24T23:04:13.251Z,7.47
2022-09-24T23:06:41.378Z,7.20
2022-09-24T23:09:10.072Z,7.85
2022-09-24T23:11:38.009Z,6.88
2022-09-24T23:14:07.587Z,7.30
2022-09-24T23:16:38.522Z,7.38
2022-09-24T23:19:08.389Z,8.20
2022-09-24T23:21:37.291Z,8.45
2022-09-24T23:24:09.171Z,8.10
2022-09-24T23:26:37.238Z,7.72
2022-09-24T23:29:04.905Z,7.35
2022-09-24T23:31:35.653Z,8.35
2022-09-24T23:34:06.963Z,8.95
2022-09-24T23:36:35.878Z,9.60
2022-09-24T23:39:05.239Z,10.68
2022-09-24T23:41:32.967Z,9.23
2022-09-24T23:44:01.063Z,9.50
2022-09-24T23:46:29.171Z,10.30
2022-09-24T23:48:57.617Z,9.50
2022-09-24T23:51:26.822Z,10.15
2022-09-24T23:53:55.215Z,9.73
2022-09-24T23:56:23.065Z,9.32
2022-09-24T23:58:50.965Z,9.27
